sensor_id;sensor_type;location;lat;lon;timestamp;P1;durP1;ratioP1;P2;durP2;ratioP2
1346;SDS011;667;48.796;9.480;2024-01-10T00:01:16;19.00;;;9.77;;
1346;SDS011;667;48.796;9.480;2024-01-10T00:03:42;12.85;;;8.95;;
1346;SDS011;667;48.796;9.480;2024-01-10T00:06:08;16.90;;;9.90;;
1346;SDS011;667;48.796;9.480;2024-01-10T00:08:35;15.10;;;9.13;;
1346;SDS011;667;48.796;9.480;2024-01-10T00:11:00;11.10;;;8.00;;
1346;SDS011;667;48.796;9.480;2024-01-10T00:13:26;15.43;;;9.23;;
1346;SDS011;667;48.796;9.480;2024-01-10T00:15:52;14.52;;;8.70;;
1346;SDS011;667;48.796;9.480;2024-01-10T00:18:20;12.48;;;8.65;;
1346;SDS011;667;48.796;9.480;2024-01-10T00:20:46;11.43;;;8.80;;
1346;SDS011;667;48.796;9.480;2024-01-10T00:23:12;13.77;;;8.80;;
1346;SDS011;667;48.796;9.480;2024-01-10T00:25:38;14.10;;;8.00;;
1346;SDS011;667;48.796;9.480;2024-01-10T00:28:04;13.35;;;8.65;;
1346;SDS011;667;48.796;9.480;2024-01-10T00:30:30;18.05;;;9.95;;
1346;SDS011;667;48.796;9.480;2024-01-10T00:32:55;17.93;;;10.63;;
1346;SDS011;667;48.796;9.480;2024-01-10T00:35:21;13.83;;;10.57;;
1346;SDS011;667;48.796;9.480;2024-01-10T00:37:46;13.50;;;10.30;;
1346;SDS011;667;48.796;9.480;2024-01-10T00:40:12;14.33;;;9.60;;
1346;SDS011;667;48.796;9.480;2024-01-10T00:42:37;15.73;;;10.17;;
1346;SDS011;667;48.796;9.480;2024-01-10T00:45:03;13.20;;;8.30;;
1346;SDS011;667;48.796;9.480;2024-01-10T00:47:29;12.30;;;8.85;;
1346;SDS011;667;48.796;9.480;2024-01-10T00:49:55;16.50;;;9.73;;
1346;SDS011;667;48.796;9.480;2024-01-10T00:52:21;11.63;;;7.63;;
1346;SDS011;667;48.796;9.480;2024-01-10T00:54:47;14.85;;;8.95;;
1346;SDS011;667;48.796;9.480;2024-01-10T00:57:12;13.50;;;8.73;;
1346;SDS011;667;48.796;9.480;2024-01-10T00:59:38;14.45;;;9.43;;
1346;SDS011;667;48.796;9.480;2024-01-10T01:02:04;14.30;;;9.57;;
1346;SDS011;667;48.796;9.480;2024-01-10T01:04:29;13.60;;;8.10;;
1346;SDS011;667;48.796;9.480;2024-01-10T01:06:55;13.70;;;9.20;;
1346;SDS011;667;48.796;9.480;2024-01-10T01:09:20;13.10;;;9.97;;
1346;SDS011;667;48.796;9.480;2024-01-10T01:11:46;15.47;;;9.10;;
1346;SDS011;667;48.796;9.480;2024-01-10T01:14:11;15.90;;;8.80;;
1346;SDS011;667;48.796;9.480;2024-01-10T01:16:37;11.57;;;8.40;;
1346;SDS011;667;48.796;9.480;2024-01-10T01:19:02;11.87;;;8.30;;
1346;SDS011;667;48.796;9.480;2024-01-10T01:21:28;15.70;;;8.60;;
1346;SDS011;667;48.796;9.480;2024-01-10T01:23:54;13.67;;;8.10;;
1346;SDS011;667;48.796;9.480;2024-01-10T01:26:19;13.40;;;8.67;;
1346;SDS011;667;48.796;9.480;2024-01-10T01:28:45;13.87;;;9.50;;
1346;SDS011;667;48.796;9.480;2024-01-10T01:31:11;12.63;;;8.37;;
1346;SDS011;667;48.796;9.480;2024-01-10T01:33:36;15.33;;;8.33;;
1346;SDS011;667;48.796;9.480;2024-01-10T01:36:04;11.18;;;7.55;;
1346;SDS011;667;48.796;9.480;2024-01-10T01:38:30;10.68;;;7.50;;
1346;SDS011;667;48.796;9.480;2024-01-10T01:40:55;10.53;;;7.90;;
1346;SDS011;667;48.796;9.480;2024-01-10T01:43:22;11.77;;;7.97;;
1346;SDS011;667;48.796;9.480;2024-01-10T01:45:50;14.55;;;9.82;;
1346;SDS011;667;48.796;9.480;2024-01-10T01:48:20;12.13;;;7.97;;
1346;SDS011;667;48.796;9.480;2024-01-10T01:50:47;11.00;;;7.30;;
1346;SDS011;667;48.796;9.480;2024-01-10T01:53:16;14.40;;;8.15;;
1346;SDS011;667;48.796;9.480;2024-01-10T01:55:43;14.13;;;7.47;;
1346;SDS011;667;48.796;9.480;2024-01-10T01:58:09;11.57;;;7.90;;
1346;SDS011;667;48.796;9.480;2024-01-10T02:00:35;14.00;;;8.20;;
1346;SDS011;667;48.796;9.480;2024-01-10T02:03:02;11.25;;;7.65;;
1346;SDS011;667;48.796;9.480;2024-01-10T02:05:35;13.98;;;8.90;;
1346;SDS011;667;48.796;9.480;2024-01-10T02:08:01;13.13;;;8.45;;
1346;SDS011;667;48.796;9.480;2024-01-10T02:10:27;14.17;;;8.63;;
1346;SDS011;667;48.796;9.480;2024-01-10T02:12:53;14.10;;;8.40;;
1346;SDS011;667;48.796;9.480;2024-01-10T02:15:18;13.60;;;8.03;;
1346;SDS011;667;48.796;9.480;2024-01-10T02:17:44;14.25;;;9.13;;
1346;SDS011;667;48.796;9.480;2024-01-10T02:20:13;14.97;;;7.73;;
1346;SDS011;667;48.796;9.480;2024-01-10T02:22:43;15.30;;;8.93;;
1346;SDS011;667;48.796;9.480;2024-01-10T02:25:09;15.13;;;8.60;;
1346;SDS011;667;48.796;9.480;2024-01-10T02:27:35;11.18;;;7.82;;
1346;SDS011;667;48.796;9.480;2024-01-10T02:30:02;13.25;;;9.02;;
1346;SDS011;667;48.796;9.480;2024-01-10T02:32:28;12.20;;;8.20;;
1346;SDS011;667;48.796;9.480;2024-01-10T02:34:54;12.50;;;8.30;;
1346;SDS011;667;48.796;9.480;2024-01-10T02:37:20;11.40;;;7.70;;
1346;SDS011;667;48.796;9.480;2024-01-10T02:39:45;9.57;;;7.27;;
1346;SDS011;667;48.796;9.480;2024-01-10T02:42:11;12.70;;;8.07;;
1346;SDS011;667;48.796;9.480;2024-01-10T02:44:37;11.30;;;7.30;;
1346;SDS011;667;48.796;9.480;2024-01-10T02:47:02;12.50;;;8.00;;
1346;SDS011;667;48.796;9.480;2024-01-10T02:49:28;12.33;;;7.00;;
1346;SDS011;667;48.796;9.480;2024-01-10T02:51:54;9.77;;;7.20;;
1346;SDS011;667;48.796;9.480;2024-01-10T02:54:19;13.27;;;8.43;;
1346;SDS011;667;48.796;9.480;2024-01-10T02:56:45;14.60;;;7.43;;
1346;SDS011;667;48.796;9.480;2024-01-10T02:59:11;11.87;;;7.10;;
1346;SDS011;667;48.796;9.480;2024-01-10T03:01:36;13.23;;;8.40;;
1346;SDS011;667;48.796;9.480;2024-01-10T03:04:02;15.63;;;7.90;;
1346;SDS011;667;48.796;9.480;2024-01-10T03:06:28;14.37;;;8.17;;
1346;SDS011;667;48.796;9.480;2024-01-10T03:08:54;10.37;;;6.87;;
1346;SDS011;667;48.796;9.480;2024-01-10T03:11:19;12.85;;;8.10;;
1346;SDS011;667;48.796;9.480;2024-01-10T03:13:46;13.07;;;8.47;;
1346;SDS011;667;48.796;9.480;2024-01-10T03:16:12;14.10;;;8.20;;
1346;SDS011;667;48.796;9.480;2024-01-10T03:18:38;13.43;;;7.80;;
1346;SDS011;667;48.796;9.480;2024-01-10T03:21:04;11.30;;;6.87;;
1346;SDS011;667;48.796;9.480;2024-01-10T03:23:29;16.63;;;8.00;;
1346;SDS011;667;48.796;9.480;2024-01-10T03:25:55;13.17;;;7.67;;
1346;SDS011;667;48.796;9.480;2024-01-10T03:28:21;13.27;;;8.60;;
1346;SDS011;667;48.796;9.480;2024-01-10T03:30:47;15.77;;;8.70;;
1346;SDS011;667;48.796;9.480;2024-01-10T03:33:13;13.37;;;8.60;;
1346;SDS011;667;48.796;9.480;2024-01-10T03:35:40;11.57;;;7.47;;
1346;SDS011;667;48.796;9.480;2024-01-10T03:38:06;12.57;;;6.95;;
1346;SDS011;667;48.796;9.480;2024-01-10T03:40:32;9.07;;;7.13;;
1346;SDS011;667;48.796;9.480;2024-01-10T03:42:57;12.20;;;8.27;;
1346;SDS011;667;48.796;9.480;2024-01-10T03:45:23;13.40;;;8.70;;
1346;SDS011;667;48.796;9.480;2024-01-10T03:47:49;10.50;;;6.60;;
1346;SDS011;667;48.796;9.480;2024-01-10T03:50:18;15.50;;;8.55;;
1346;SDS011;667;48.796;9.480;2024-01-10T03:52:45;17.60;;;10.55;;
1346;SDS011;667;48.796;9.480;2024-01-10T03:55:12;12.23;;;8.25;;
1346;SDS011;667;48.796;9.480;2024-01-10T03:57:38;11.15;;;8.07;;
1346;SDS011;667;48.796;9.480;2024-01-10T04:00:04;12.43;;;8.05;;
1346;SDS011;667;48.796;9.480;2024-01-10T04:02:31;12.05;;;8.00;;
1346;SDS011;667;48.796;9.480;2024-01-10T04:04:57;10.75;;;7.50;;
1346;SDS011;667;48.796;9.480;2024-01-10T04:07:23;10.87;;;8.03;;
1346;SDS011;667;48.796;9.480;2024-01-10T04:09:48;14.13;;;8.70;;
1346;SDS011;667;48.796;9.480;2024-01-10T04:12:14;10.20;;;7.80;;
1346;SDS011;667;48.796;9.480;2024-01-10T04:14:40;13.33;;;8.47;;
1346;SDS011;667;48.796;9.480;2024-01-10T04:17:05;13.20;;;8.60;;
1346;SDS011;667;48.796;9.480;2024-01-10T04:19:32;12.15;;;8.38;;
1346;SDS011;667;48.796;9.480;2024-01-10T04:21:58;14.30;;;8.93;;
1346;SDS011;667;48.796;9.480;2024-01-10T04:24:24;10.68;;;7.80;;
1346;SDS011;667;48.796;9.480;2024-01-10T04:26:49;13.33;;;9.23;;
1346;SDS011;667;48.796;9.480;2024-01-10T04:29:15;16.83;;;9.47;;
1346;SDS011;667;48.796;9.480;2024-01-10T04:31:41;29.57;;;17.60;;
1346;SDS011;667;48.796;9.480;2024-01-10T04:34:06;23.40;;;13.33;;
1346;SDS011;667;48.796;9.480;2024-01-10T04:36:32;15.33;;;9.33;;
1346;SDS011;667;48.796;9.480;2024-01-10T04:38:57;13.40;;;9.20;;
1346;SDS011;667;48.796;9.480;2024-01-10T04:41:23;14.10;;;9.57;;
1346;SDS011;667;48.796;9.480;2024-01-10T04:43:49;14.77;;;9.20;;
1346;SDS011;667;48.796;9.480;2024-01-10T04:46:15;11.70;;;8.67;;
1346;SDS011;667;48.796;9.480;2024-01-10T04:48:40;14.57;;;9.33;;
1346;SDS011;667;48.796;9.480;2024-01-10T04:51:06;14.47;;;9.10;;
1346;SDS011;667;48.796;9.480;2024-01-10T04:53:32;15.20;;;9.10;;
1346;SDS011;667;48.796;9.480;2024-01-10T04:55:57;12.30;;;8.80;;
1346;SDS011;667;48.796;9.480;2024-01-10T04:58:23;12.90;;;8.20;;
1346;SDS011;667;48.796;9.480;2024-01-10T05:00:48;12.03;;;7.60;;
1346;SDS011;667;48.796;9.480;2024-01-10T05:03:14;13.57;;;9.07;;
1346;SDS011;667;48.796;9.480;2024-01-10T05:05:40;14.13;;;9.00;;
1346;SDS011;667;48.796;9.480;2024-01-10T05:08:06;14.00;;;9.43;;
1346;SDS011;667;48.796;9.480;2024-01-10T05:10:31;10.30;;;8.30;;
1346;SDS011;667;48.796;9.480;2024-01-10T05:12:57;15.00;;;9.43;;
1346;SDS011;667;48.796;9.480;2024-01-10T05:15:23;17.10;;;10.10;;
1346;SDS011;667;48.796;9.480;2024-01-10T05:17:48;13.57;;;9.57;;
1346;SDS011;667;48.796;9.480;2024-01-10T05:20:14;16.53;;;10.43;;
1346;SDS011;667;48.796;9.480;2024-01-10T05:22:40;14.67;;;8.50;;
1346;SDS011;667;48.796;9.480;2024-01-10T05:25:05;18.90;;;11.47;;
1346;SDS011;667;48.796;9.480;2024-01-10T05:27:31;14.60;;;9.73;;
1346;SDS011;667;48.796;9.480;2024-01-10T05:29:57;16.37;;;9.87;;
1346;SDS011;667;48.796;9.480;2024-01-10T05:32:24;17.50;;;9.95;;
1346;SDS011;667;48.796;9.480;2024-01-10T05:34:51;13.35;;;8.95;;
1346;SDS011;667;48.796;9.480;2024-01-10T05:37:17;14.27;;;9.20;;
1346;SDS011;667;48.796;9.480;2024-01-10T05:39:42;15.33;;;9.10;;
1346;SDS011;667;48.796;9.480;2024-01-10T05:42:08;14.63;;;8.67;;
1346;SDS011;667;48.796;9.480;2024-01-10T05:44:33;14.00;;;9.80;;
1346;SDS011;667;48.796;9.480;2024-01-10T05:46:59;15.53;;;8.73;;
1346;SDS011;667;48.796;9.480;2024-01-10T05:49:25;18.87;;;9.60;;
1346;SDS011;667;48.796;9.480;2024-01-10T05:51:51;15.65;;;10.80;;
1346;SDS011;667;48.796;9.480;2024-01-10T05:54:16;13.20;;;9.30;;
1346;SDS011;667;48.796;9.480;2024-01-10T05:56:43;14.98;;;8.93;;
1346;SDS011;667;48.796;9.480;2024-01-10T05:59:09;11.40;;;8.60;;
1346;SDS011;667;48.796;9.480;2024-01-10T06:01:36;15.55;;;10.32;;
1346;SDS011;667;48.796;9.480;2024-01-10T06:04:03;13.40;;;10.20;;
1346;SDS011;667;48.796;9.480;2024-01-10T06:06:29;15.00;;;10.18;;
1346;SDS011;667;48.796;9.480;2024-01-10T06:08:55;13.67;;;9.63;;
1346;SDS011;667;48.796;9.480;2024-01-10T06:11:20;15.90;;;10.10;;
1346;SDS011;667;48.796;9.480;2024-01-10T06:13:46;16.83;;;9.80;;
1346;SDS011;667;48.796;9.480;2024-01-10T06:16:11;15.70;;;9.70;;
1346;SDS011;667;48.796;9.480;2024-01-10T06:18:38;24.90;;;10.38;;
1346;SDS011;667;48.796;9.480;2024-01-10T06:21:04;16.23;;;9.77;;
1346;SDS011;667;48.796;9.480;2024-01-10T06:23:30;14.87;;;10.20;;
1346;SDS011;667;48.796;9.480;2024-01-10T06:25:55;13.30;;;8.87;;
1346;SDS011;667;48.796;9.480;2024-01-10T06:28:21;20.20;;;10.47;;
1346;SDS011;667;48.796;9.480;2024-01-10T06:30:48;16.40;;;10.23;;
1346;SDS011;667;48.796;9.480;2024-01-10T06:33:14;15.95;;;9.95;;
1346;SDS011;667;48.796;9.480;2024-01-10T06:35:40;16.38;;;10.10;;
1346;SDS011;667;48.796;9.480;2024-01-10T06:38:08;18.02;;;10.43;;
1346;SDS011;667;48.796;9.480;2024-01-10T06:40:34;13.70;;;8.57;;
1346;SDS011;667;48.796;9.480;2024-01-10T06:43:01;14.85;;;8.27;;
1346;SDS011;667;48.796;9.480;2024-01-10T06:45:27;17.80;;;10.38;;
1346;SDS011;667;48.796;9.480;2024-01-10T06:47:53;16.60;;;9.80;;
1346;SDS011;667;48.796;9.480;2024-01-10T06:50:19;18.90;;;9.90;;
1346;SDS011;667;48.796;9.480;2024-01-10T06:52:45;18.40;;;10.95;;
1346;SDS011;667;48.796;9.480;2024-01-10T06:55:11;14.33;;;9.67;;
1346;SDS011;667;48.796;9.480;2024-01-10T06:57:36;17.40;;;9.53;;
1346;SDS011;667;48.796;9.480;2024-01-10T07:00:02;28.17;;;14.50;;
1346;SDS011;667;48.796;9.480;2024-01-10T07:02:32;28.70;;;16.33;;
1346;SDS011;667;48.796;9.480;2024-01-10T07:04:59;26.92;;;15.98;;
1346;SDS011;667;48.796;9.480;2024-01-10T07:07:25;22.03;;;14.87;;
1346;SDS011;667;48.796;9.480;2024-01-10T07:09:50;17.10;;;11.60;;
1346;SDS011;667;48.796;9.480;2024-01-10T07:12:16;17.20;;;10.17;;
1346;SDS011;667;48.796;9.480;2024-01-10T07:14:41;14.50;;;9.43;;
1346;SDS011;667;48.796;9.480;2024-01-10T07:17:07;17.47;;;10.70;;
1346;SDS011;667;48.796;9.480;2024-01-10T07:19:32;13.20;;;9.40;;
1346;SDS011;667;48.796;9.480;2024-01-10T07:21:58;18.00;;;10.07;;
1346;SDS011;667;48.796;9.480;2024-01-10T07:24:24;17.25;;;11.02;;
1346;SDS011;667;48.796;9.480;2024-01-10T07:26:50;15.77;;;10.33;;
1346;SDS011;667;48.796;9.480;2024-01-10T07:29:16;13.90;;;9.40;;
1346;SDS011;667;48.796;9.480;2024-01-10T07:31:41;16.60;;;9.13;;
1346;SDS011;667;48.796;9.480;2024-01-10T07:34:07;15.57;;;9.43;;
1346;SDS011;667;48.796;9.480;2024-01-10T07:36:33;21.53;;;10.63;;
1346;SDS011;667;48.796;9.480;2024-01-10T07:38:59;14.20;;;9.33;;
1346;SDS011;667;48.796;9.480;2024-01-10T07:41:25;15.32;;;9.55;;
1346;SDS011;667;48.796;9.480;2024-01-10T07:43:50;12.10;;;8.83;;
1346;SDS011;667;48.796;9.480;2024-01-10T07:46:16;23.75;;;11.45;;
1346;SDS011;667;48.796;9.480;2024-01-10T07:48:42;14.60;;;9.87;;
1346;SDS011;667;48.796;9.480;2024-01-10T07:51:08;12.97;;;9.30;;
1346;SDS011;667;48.796;9.480;2024-01-10T07:53:33;19.97;;;10.83;;
1346;SDS011;667;48.796;9.480;2024-01-10T07:55:59;14.87;;;8.70;;
1346;SDS011;667;48.796;9.480;2024-01-10T07:58:25;15.87;;;9.87;;
1346;SDS011;667;48.796;9.480;2024-01-10T08:00:50;18.40;;;9.97;;
1346;SDS011;667;48.796;9.480;2024-01-10T08:03:16;18.97;;;9.93;;
1346;SDS011;667;48.796;9.480;2024-01-10T08:05:42;16.07;;;9.63;;
1346;SDS011;667;48.796;9.480;2024-01-10T08:08:08;16.20;;;10.90;;
1346;SDS011;667;48.796;9.480;2024-01-10T08:10:34;18.67;;;11.65;;
1346;SDS011;667;48.796;9.480;2024-01-10T08:12:59;16.87;;;11.03;;
1346;SDS011;667;48.796;9.480;2024-01-10T08:15:25;13.40;;;9.70;;
1346;SDS011;667;48.796;9.480;2024-01-10T08:17:51;15.80;;;11.27;;
1346;SDS011;667;48.796;9.480;2024-01-10T08:20:17;15.00;;;10.02;;
1346;SDS011;667;48.796;9.480;2024-01-10T08:22:45;17.38;;;10.95;;
1346;SDS011;667;48.796;9.480;2024-01-10T08:25:12;18.58;;;10.90;;
1346;SDS011;667;48.796;9.480;2024-01-10T08:27:40;21.38;;;11.75;;
1346;SDS011;667;48.796;9.480;2024-01-10T08:30:06;18.53;;;10.83;;
1346;SDS011;667;48.796;9.480;2024-01-10T08:32:34;17.13;;;11.10;;
1346;SDS011;667;48.796;9.480;2024-01-10T08:35:01;15.80;;;10.75;;
1346;SDS011;667;48.796;9.480;2024-01-10T08:37:29;17.15;;;12.05;;
1346;SDS011;667;48.796;9.480;2024-01-10T08:39:55;16.17;;;11.03;;
1346;SDS011;667;48.796;9.480;2024-01-10T08:42:21;24.07;;;12.60;;
1346;SDS011;667;48.796;9.480;2024-01-10T08:44:46;19.37;;;12.13;;
1346;SDS011;667;48.796;9.480;2024-01-10T08:47:12;15.13;;;10.30;;
1346;SDS011;667;48.796;9.480;2024-01-10T08:49:37;20.90;;;12.90;;
1346;SDS011;667;48.796;9.480;2024-01-10T08:52:03;17.17;;;12.70;;
1346;SDS011;667;48.796;9.480;2024-01-10T08:54:29;16.20;;;12.77;;
1346;SDS011;667;48.796;9.480;2024-01-10T08:56:54;22.90;;;14.00;;
1346;SDS011;667;48.796;9.480;2024-01-10T08:59:20;18.30;;;11.93;;
1346;SDS011;667;48.796;9.480;2024-01-10T09:01:46;21.17;;;13.40;;
1346;SDS011;667;48.796;9.480;2024-01-10T09:04:11;21.80;;;14.20;;
1346;SDS011;667;48.796;9.480;2024-01-10T09:06:37;21.50;;;15.17;;
1346;SDS011;667;48.796;9.480;2024-01-10T09:09:03;22.97;;;13.80;;
1346;SDS011;667;48.796;9.480;2024-01-10T09:11:28;20.80;;;12.37;;
1346;SDS011;667;48.796;9.480;2024-01-10T09:13:54;23.53;;;14.40;;
1346;SDS011;667;48.796;9.480;2024-01-10T09:16:20;24.57;;;15.00;;
1346;SDS011;667;48.796;9.480;2024-01-10T09:18:45;19.90;;;13.10;;
1346;SDS011;667;48.796;9.480;2024-01-10T09:21:11;26.43;;;15.77;;
1346;SDS011;667;48.796;9.480;2024-01-10T09:23:37;21.10;;;14.50;;
1346;SDS011;667;48.796;9.480;2024-01-10T09:26:03;24.40;;;14.60;;
1346;SDS011;667;48.796;9.480;2024-01-10T09:28:28;23.70;;;15.17;;
1346;SDS011;667;48.796;9.480;2024-01-10T09:30:54;21.80;;;15.50;;
1346;SDS011;667;48.796;9.480;2024-01-10T09:33:20;20.67;;;15.63;;
1346;SDS011;667;48.796;9.480;2024-01-10T09:35:47;21.23;;;14.90;;
1346;SDS011;667;48.796;9.480;2024-01-10T09:38:13;21.30;;;16.33;;
1346;SDS011;667;48.796;9.480;2024-01-10T09:40:38;24.30;;;16.13;;
1346;SDS011;667;48.796;9.480;2024-01-10T09:43:05;25.60;;;17.17;;
1346;SDS011;667;48.796;9.480;2024-01-10T09:45:34;24.75;;;17.15;;
1346;SDS011;667;48.796;9.480;2024-01-10T09:48:01;20.13;;;15.80;;
1346;SDS011;667;48.796;9.480;2024-01-10T09:50:27;21.30;;;17.50;;
1346;SDS011;667;48.796;9.480;2024-01-10T09:52:53;25.80;;;16.27;;
1346;SDS011;667;48.796;9.480;2024-01-10T09:55:26;21.65;;;15.55;;
1346;SDS011;667;48.796;9.480;2024-01-10T09:57:58;20.25;;;16.73;;
1346;SDS011;667;48.796;9.480;2024-01-10T10:00:26;25.42;;;17.45;;
1346;SDS011;667;48.796;9.480;2024-01-10T10:02:52;23.60;;;18.70;;
1346;SDS011;667;48.796;9.480;2024-01-10T10:05:21;21.15;;;17.20;;
1346;SDS011;667;48.796;9.480;2024-01-10T10:07:51;20.02;;;16.83;;
1346;SDS011;667;48.796;9.480;2024-01-10T10:10:18;22.73;;;17.35;;
1346;SDS011;667;48.796;9.480;2024-01-10T10:12:45;23.33;;;18.50;;
1346;SDS011;667;48.796;9.480;2024-01-10T10:15:18;20.98;;;17.30;;
1346;SDS011;667;48.796;9.480;2024-01-10T10:17:48;20.67;;;16.42;;
1346;SDS011;667;48.796;9.480;2024-01-10T10:20:21;23.35;;;17.27;;
1346;SDS011;667;48.796;9.480;2024-01-10T10:25:35;22.88;;;16.83;;
1346;SDS011;667;48.796;9.480;2024-01-10T10:28:03;23.23;;;16.25;;
1346;SDS011;667;48.796;9.480;2024-01-10T10:30:32;22.55;;;18.40;;
1346;SDS011;667;48.796;9.480;2024-01-10T10:32:58;26.73;;;19.60;;
1346;SDS011;667;48.796;9.480;2024-01-10T10:35:24;24.33;;;18.90;;
1346;SDS011;667;48.796;9.480;2024-01-10T10:37:50;24.67;;;19.70;;
1346;SDS011;667;48.796;9.480;2024-01-10T10:40:16;29.30;;;20.63;;
1346;SDS011;667;48.796;9.480;2024-01-10T10:42:55;26.98;;;20.67;;
1346;SDS011;667;48.796;9.480;2024-01-10T10:45:22;25.38;;;18.52;;
1346;SDS011;667;48.796;9.480;2024-01-10T10:47:51;24.67;;;19.02;;
1346;SDS011;667;48.796;9.480;2024-01-10T10:50:28;23.87;;;19.00;;
1346;SDS011;667;48.796;9.480;2024-01-10T10:52:58;23.60;;;18.33;;
1346;SDS011;667;48.796;9.480;2024-01-10T10:55:25;26.23;;;20.30;;
1346;SDS011;667;48.796;9.480;2024-01-10T10:57:52;24.03;;;18.77;;
1346;SDS011;667;48.796;9.480;2024-01-10T11:00:20;26.83;;;19.63;;
1346;SDS011;667;48.796;9.480;2024-01-10T11:02:51;26.23;;;19.17;;
1346;SDS011;667;48.796;9.480;2024-01-10T11:05:18;30.52;;;21.92;;
1346;SDS011;667;48.796;9.480;2024-01-10T11:07:45;26.13;;;20.75;;
1346;SDS011;667;48.796;9.480;2024-01-10T11:10:16;24.65;;;19.42;;
1346;SDS011;667;48.796;9.480;2024-01-10T11:21:24;28.92;;;19.65;;
1346;SDS011;667;48.796;9.480;2024-01-10T11:24:13;27.98;;;18.92;;
1346;SDS011;667;48.796;9.480;2024-01-10T11:26:39;24.35;;;18.45;;
1346;SDS011;667;48.796;9.480;2024-01-10T11:29:05;24.60;;;18.80;;
1346;SDS011;667;48.796;9.480;2024-01-10T11:31:31;29.95;;;19.42;;
1346;SDS011;667;48.796;9.480;2024-01-10T11:33:58;30.58;;;20.10;;
1346;SDS011;667;48.796;9.480;2024-01-10T11:36:25;25.08;;;17.65;;
1346;SDS011;667;48.796;9.480;2024-01-10T11:41:25;29.38;;;19.20;;
1346;SDS011;667;48.796;9.480;2024-01-10T11:46:42;26.58;;;17.67;;
1346;SDS011;667;48.796;9.480;2024-01-10T11:49:11;32.28;;;21.17;;
1346;SDS011;667;48.796;9.480;2024-01-10T11:51:41;31.23;;;19.58;;
1346;SDS011;667;48.796;9.480;2024-01-10T11:54:07;28.90;;;19.38;;
1346;SDS011;667;48.796;9.480;2024-01-10T11:56:40;27.70;;;18.03;;
1346;SDS011;667;48.796;9.480;2024-01-10T11:59:09;26.92;;;18.60;;
1346;SDS011;667;48.796;9.480;2024-01-10T12:01:36;27.65;;;19.27;;
1346;SDS011;667;48.796;9.480;2024-01-10T12:04:03;28.80;;;18.70;;
1346;SDS011;667;48.796;9.480;2024-01-10T12:06:30;27.15;;;17.65;;
1346;SDS011;667;48.796;9.480;2024-01-10T12:08:56;27.88;;;18.85;;
1346;SDS011;667;48.796;9.480;2024-01-10T12:11:22;27.03;;;19.27;;
1346;SDS011;667;48.796;9.480;2024-01-10T12:13:48;32.40;;;20.38;;
1346;SDS011;667;48.796;9.480;2024-01-10T12:16:13;24.53;;;18.33;;
1346;SDS011;667;48.796;9.480;2024-01-10T12:18:42;25.57;;;17.07;;
1346;SDS011;667;48.796;9.480;2024-01-10T12:21:08;27.30;;;18.10;;
1346;SDS011;667;48.796;9.480;2024-01-10T12:23:35;27.30;;;18.35;;
1346;SDS011;667;48.796;9.480;2024-01-10T12:26:02;28.20;;;18.17;;
1346;SDS011;667;48.796;9.480;2024-01-10T12:28:29;29.52;;;19.67;;
1346;SDS011;667;48.796;9.480;2024-01-10T12:30:55;28.97;;;19.83;;
1346;SDS011;667;48.796;9.480;2024-01-10T12:33:22;29.15;;;18.33;;
1346;SDS011;667;48.796;9.480;2024-01-10T12:36:07;29.85;;;19.40;;
1346;SDS011;667;48.796;9.480;2024-01-10T12:38:39;27.88;;;17.27;;
1346;SDS011;667;48.796;9.480;2024-01-10T12:41:05;30.23;;;18.65;;
1346;SDS011;667;48.796;9.480;2024-01-10T12:43:33;27.38;;;17.75;;
1346;SDS011;667;48.796;9.480;2024-01-10T12:48:30;25.58;;;16.88;;
1346;SDS011;667;48.796;9.480;2024-01-10T12:50:56;25.38;;;18.45;;
1346;SDS011;667;48.796;9.480;2024-01-10T12:53:25;26.80;;;17.88;;
1346;SDS011;667;48.796;9.480;2024-01-10T12:55:54;28.13;;;16.85;;
1346;SDS011;667;48.796;9.480;2024-01-10T12:58:20;27.88;;;19.08;;
1346;SDS011;667;48.796;9.480;2024-01-10T13:00:46;29.87;;;19.10;;
1346;SDS011;667;48.796;9.480;2024-01-10T13:03:11;28.17;;;17.10;;
1346;SDS011;667;48.796;9.480;2024-01-10T13:05:37;26.60;;;18.13;;
1346;SDS011;667;48.796;9.480;2024-01-10T13:08:03;31.65;;;19.35;;
1346;SDS011;667;48.796;9.480;2024-01-10T13:10:30;26.75;;;18.23;;
1346;SDS011;667;48.796;9.480;2024-01-10T13:12:56;28.57;;;17.10;;
1346;SDS011;667;48.796;9.480;2024-01-10T13:15:21;33.47;;;19.23;;
1346;SDS011;667;48.796;9.480;2024-01-10T13:17:47;32.87;;;19.33;;
1346;SDS011;667;48.796;9.480;2024-01-10T13:20:13;27.83;;;18.70;;
1346;SDS011;667;48.796;9.480;2024-01-10T13:22:38;29.83;;;18.73;;
1346;SDS011;667;48.796;9.480;2024-01-10T13:25:04;29.70;;;18.30;;
1346;SDS011;667;48.796;9.480;2024-01-10T13:27:30;27.27;;;17.75;;
1346;SDS011;667;48.796;9.480;2024-01-10T13:29:57;29.42;;;17.60;;
1346;SDS011;667;48.796;9.480;2024-01-10T13:32:22;28.70;;;19.47;;
1346;SDS011;667;48.796;9.480;2024-01-10T13:34:48;25.90;;;18.30;;
1346;SDS011;667;48.796;9.480;2024-01-10T13:37:13;31.20;;;19.07;;
1346;SDS011;667;48.796;9.480;2024-01-10T13:39:42;30.83;;;19.20;;
1346;SDS011;667;48.796;9.480;2024-01-10T13:42:08;30.67;;;18.15;;
1346;SDS011;667;48.796;9.480;2024-01-10T13:44:35;26.92;;;18.25;;
1346;SDS011;667;48.796;9.480;2024-01-10T13:47:01;28.63;;;17.90;;
1346;SDS011;667;48.796;9.480;2024-01-10T13:49:28;26.33;;;17.17;;
1346;SDS011;667;48.796;9.480;2024-01-10T13:51:54;32.87;;;18.50;;
1346;SDS011;667;48.796;9.480;2024-01-10T13:54:19;32.03;;;18.53;;
1346;SDS011;667;48.796;9.480;2024-01-10T13:56:46;28.10;;;17.75;;
1346;SDS011;667;48.796;9.480;2024-01-10T13:59:12;26.73;;;19.13;;
1346;SDS011;667;48.796;9.480;2024-01-10T14:01:38;28.53;;;18.60;;
1346;SDS011;667;48.796;9.480;2024-01-10T14:04:04;27.83;;;18.30;;
1346;SDS011;667;48.796;9.480;2024-01-10T14:06:30;27.27;;;17.88;;
1346;SDS011;667;48.796;9.480;2024-01-10T14:08:56;32.30;;;20.07;;
1346;SDS011;667;48.796;9.480;2024-01-10T14:11:22;30.52;;;18.85;;
1346;SDS011;667;48.796;9.480;2024-01-10T14:13:49;30.75;;;18.80;;
1346;SDS011;667;48.796;9.480;2024-01-10T14:16:15;29.70;;;17.40;;
1346;SDS011;667;48.796;9.480;2024-01-10T14:18:40;29.93;;;18.07;;
1346;SDS011;667;48.796;9.480;2024-01-10T14:21:06;25.40;;;17.30;;
1346;SDS011;667;48.796;9.480;2024-01-10T14:23:32;36.17;;;20.00;;
1346;SDS011;667;48.796;9.480;2024-01-10T14:25:58;31.80;;;18.17;;
1346;SDS011;667;48.796;9.480;2024-01-10T14:28:24;31.48;;;19.10;;
1346;SDS011;667;48.796;9.480;2024-01-10T14:30:50;28.27;;;17.25;;
1346;SDS011;667;48.796;9.480;2024-01-10T14:33:16;27.67;;;17.13;;
1346;SDS011;667;48.796;9.480;2024-01-10T14:35:41;23.37;;;16.70;;
1346;SDS011;667;48.796;9.480;2024-01-10T14:38:07;32.90;;;18.00;;
1346;SDS011;667;48.796;9.480;2024-01-10T14:40:33;32.37;;;18.50;;
1346;SDS011;667;48.796;9.480;2024-01-10T14:42:58;28.77;;;18.00;;
1346;SDS011;667;48.796;9.480;2024-01-10T14:45:24;29.30;;;17.07;;
1346;SDS011;667;48.796;9.480;2024-01-10T14:47:49;31.07;;;17.90;;
1346;SDS011;667;48.796;9.480;2024-01-10T14:50:15;32.07;;;18.10;;
1346;SDS011;667;48.796;9.480;2024-01-10T14:52:41;26.20;;;17.65;;
1346;SDS011;667;48.796;9.480;2024-01-10T14:55:07;50.33;;;27.80;;
1346;SDS011;667;48.796;9.480;2024-01-10T14:57:33;73.18;;;34.80;;
1346;SDS011;667;48.796;9.480;2024-01-10T14:59:59;46.70;;;27.80;;
1346;SDS011;667;48.796;9.480;2024-01-10T15:02:24;29.63;;;18.77;;
1346;SDS011;667;48.796;9.480;2024-01-10T15:04:50;31.17;;;19.60;;
1346;SDS011;667;48.796;9.480;2024-01-10T15:07:16;37.67;;;21.23;;
1346;SDS011;667;48.796;9.480;2024-01-10T15:09:42;26.27;;;16.90;;
1346;SDS011;667;48.796;9.480;2024-01-10T15:12:08;24.77;;;16.45;;
1346;SDS011;667;48.796;9.480;2024-01-10T15:14:34;27.83;;;16.77;;
1346;SDS011;667;48.796;9.480;2024-01-10T15:17:01;25.23;;;16.85;;
1346;SDS011;667;48.796;9.480;2024-01-10T15:19:29;24.90;;;15.95;;
1346;SDS011;667;48.796;9.480;2024-01-10T15:21:56;26.50;;;16.33;;